Latest Weather Observations for Truscott

IDW60801

Issued at 9:35 am WST Wednesday 17 September 2014 (issued every 30 minutes, with the page automatically refreshed every 10 minutes)

About weather observations | Map of weather stations | Latest weather observations for WA | Other Formats
Station Details ID: 001020 Name: TRUSCOTT Lat: -14.09 Lon: 126.39 Height: 51.0 m
Data from the previous 72 hours. | See also: Recent months at Truscott
Date/Time
WST
Temp
°C
App
Temp
°C
Dew
Point
Rel
Hum
%
Delta-T
°C
Wind Press
QNH
hPa
Press
MSL
hPa
Rain
since 9 am
mm
Dir
 
Spd
km/h
Gust
km/h
Spd
kts
Gust
kts
17/09:30am 30.0 29.9 16.0 42 8.7 N 11 13 6 7 1015.0 - 0.0
17/09:00am 30.1 30.2 15.4 41 9.1 NE 9 9 5 5 1015.0 1015.1 0.0
17/08:30am 29.0 29.9 16.0 45 8.1 ENE 6 - 3 - 1015.0 - 0.0
17/08:00am 28.0 29.2 16.0 48 7.4 SSW 4 - 2 - 1015.0 - 0.0
17/07:30am 26.0 27.7 18.0 61 5.1 S 6 - 3 - 1014.0 - 0.0
17/07:00am 25.0 26.2 19.0 69 3.8 SSW 11 - 6 - 1014.0 - 0.0
17/06:30am 24.0 25.6 20.0 78 2.6 SSW 11 - 6 - 1013.0 - 0.0
17/06:00am 22.8 25.0 20.3 86 1.6 SSW 9 - 5 - 1013.0 1012.9 0.0
17/05:30am 22.0 24.5 21.0 94 0.7 SSW 9 - 5 - 1013.0 - 0.0
17/05:00am 22.0 24.5 21.0 94 0.7 SSW 9 - 5 - 1012.0 - 0.0
17/04:30am 22.0 24.1 21.0 94 0.7 SW 11 - 6 - 1012.0 - 0.0
17/04:00am 22.0 24.1 21.0 94 0.7 SW 11 - 6 - 1012.0 - 0.0
17/03:30am 23.0 25.1 21.0 88 1.3 SW 11 - 6 - 1012.0 - 0.0
17/03:00am 22.5 24.5 20.8 90 1.1 SW 11 - 6 - 1011.0 1011.3 0.0
17/02:30am 23.0 25.1 21.0 88 1.3 SSW 11 - 6 - 1011.0 - 0.0
17/02:00am 23.0 25.1 21.0 88 1.3 SSW 11 - 6 - 1011.0 - 0.0
17/01:30am 23.0 25.1 21.0 88 1.3 SSW 11 - 6 - 1011.0 - 0.0
17/01:00am 23.0 25.1 21.0 88 1.3 SW 11 - 6 - 1011.0 - 0.0
17/12:30am 23.0 25.5 21.0 88 1.3 SW 9 - 5 - 1011.0 - 0.0
17/12:00am 23.1 25.3 21.2 89 1.2 SSW 11 13 6 7 1012.0 1011.9 0.0
 
Date/Time
WST
Temp
°C
App
Temp
°C
Dew
Point
Rel
Hum
%
Delta-T
°C
Wind Press
QNH
hPa
Press
MSL
hPa
Rain
since 9 am
mm
Dir
 
Spd
km/h
Gust
km/h
Spd
kts
Gust
kts
16/11:30pm 23.0 25.9 21.0 88 1.3 SW 7 - 4 - 1012.0 - 0.0
16/11:00pm 23.0 26.4 22.0 94 0.7 SW 7 - 4 - 1013.0 - 0.0
16/10:30pm 22.0 24.6 20.0 88 1.3 SSW 6 - 3 - 1013.0 - 0.0
16/10:00pm 22.0 25.4 21.0 94 0.7 W 4 - 2 - 1013.0 - 0.0
16/09:30pm 22.0 26.2 21.0 94 0.7 CALM 0 - 0 - 1013.0 - 0.0
16/09:00pm 22.3 26.0 20.0 87 1.5 CALM 0 - 0 - 1013.0 1012.7 0.0
16/08:30pm 23.0 26.7 20.0 83 1.9 CALM 0 - 0 - 1013.0 - 0.0
16/08:00pm 23.0 26.7 20.0 83 1.9 CALM 0 - 0 - 1013.0 - 0.0
16/07:30pm 23.0 26.3 20.0 83 1.9 WNW 2 - 1 - 1012.0 - 0.0
16/07:00pm 24.0 28.2 21.0 83 2.0 W 0 0 0 0 1012.0 - 0.0
16/06:30pm 24.0 27.1 21.0 83 2.0 WNW 6 - 3 - 1012.0 - 0.0
16/06:00pm 24.8 27.7 20.7 78 2.7 NNW 6 - 3 - 1011.0 1011.2 0.0
16/05:30pm 25.0 27.1 21.0 78 2.6 N 11 - 6 - 1011.0 - 0.0
16/05:00pm 26.0 27.7 21.0 74 3.3 N 13 - 7 - 1011.0 - 0.0
16/04:30pm 27.0 28.9 22.0 74 3.4 NNW 15 - 8 - 1010.0 - 0.0
16/04:00pm 27.0 28.1 22.0 74 3.4 N 19 - 10 - 1010.0 - 0.0
16/03:30pm 27.0 27.6 21.0 69 4.0 N 19 - 10 - 1010.0 - 0.0
16/03:00pm 28.4 26.0 13.9 41 8.7 N 19 - 10 - 1010.0 1009.9 0.0
16/02:30pm 29.0 29.6 21.0 62 5.3 N 19 - 10 - 1010.0 - 0.0
16/02:00pm 28.0 28.6 21.0 65 4.7 N 19 - 10 - 1010.0 - 0.0
16/01:30pm 28.0 28.4 21.0 65 4.7 N 20 - 11 - 1011.0 - 0.0
16/01:00pm 28.0 28.4 21.0 65 4.7 N 20 - 11 - 1011.0 - 0.0
16/12:30pm 28.0 28.9 22.0 70 4.0 N 20 - 11 - 1011.0 - 0.0
16/12:00pm 28.3 29.1 21.3 65 4.7 N 19 - 10 - 1012.0 1011.7 0.0
16/11:30am 29.0 30.1 22.0 66 4.7 NNW 19 - 10 - 1012.0 - 0.0
16/11:00am 30.0 30.1 20.0 55 6.6 N 19 - 10 - 1012.0 - 0.0
16/10:30am 31.0 32.5 19.0 48 7.8 W 9 - 5 - 1012.0 - 0.0
16/10:00am 30.0 31.5 19.0 51 7.1 WNW 9 - 5 - 1013.0 - 0.0
16/09:30am 29.0 31.0 20.0 58 5.9 W 9 - 5 - 1013.0 - 0.0
16/09:00am 27.9 28.2 17.1 51 6.8 WSW 11 - 6 - 1013.0 1012.9 0.0
16/08:30am 27.0 29.5 21.0 69 4.0 W 9 - 5 - 1013.0 - 0.0
16/08:00am 26.0 28.6 22.0 78 2.7 WSW 11 - 6 - 1013.0 - 0.0
16/07:30am 25.0 30.3 23.0 89 1.4 CALM 0 - 0 - 1013.0 - 0.0
16/07:00am 23.0 26.6 22.0 94 0.7 SE 6 - 3 - 1013.0 - 0.0
16/06:30am 22.0 26.7 22.0 100 0.0 CALM 0 - 0 - 1012.0 - 0.0
16/06:00am 19.7 23.3 19.7 100 0.0 CALM 0 - 0 - 1012.0 1011.8 0.0
16/05:50am 20.0 23.7 20.0 100 0.0 CALM 0 - 0 - 1012.0 - 0.0
16/05:30am 19.0 22.3 19.0 100 0.0 CALM 0 - 0 - 1011.0 - 0.0
16/05:27am 19.0 22.3 19.0 100 0.0 CALM 0 - 0 - 1011.0 - 0.0
16/05:00am 19.0 21.1 19.0 100 0.0 S 6 - 3 - 1011.0 - 0.0
16/04:30am 20.0 22.1 19.0 94 0.6 SW 6 - 3 - 1011.0 - 0.0
16/04:00am 22.0 25.6 22.0 100 0.0 SW 6 - 3 - 1011.0 - 0.0
16/03:30am 21.0 25.2 21.0 100 0.0 CALM 0 - 0 - 1011.0 - 0.0
16/03:16am 21.0 24.7 20.0 94 0.6 CALM 0 - 0 - 1011.0 - 0.0
16/03:00am 21.2 25.2 20.5 96 0.5 CALM 0 - 0 - 1011.0 1010.5 0.0
16/02:57am 21.0 24.7 20.0 94 0.6 CALM 0 - 0 - 1010.0 - 0.0
16/02:30am 23.0 26.4 22.0 94 0.7 WSW 7 - 4 - 1010.0 - 0.0
16/02:00am 23.0 26.6 23.0 100 0.0 W 9 - 5 - 1010.0 - 0.0
16/01:30am 22.0 25.4 22.0 100 0.0 W 7 - 4 - 1011.0 - 0.0
16/01:00am 23.0 26.9 23.0 100 0.0 W 7 - 4 - 1011.0 - 0.0
16/12:30am 23.0 26.9 23.0 100 0.0 W 7 - 4 - 1011.0 - 0.0
16/12:00am 22.4 26.2 22.4 100 0.0 W 6 - 3 - 1011.0 1011.4 0.0
 
Date/Time
WST
Temp
°C
App
Temp
°C
Dew
Point
Rel
Hum
%
Delta-T
°C
Wind Press
QNH
hPa
Press
MSL
hPa
Rain
since 9 am
mm
Dir
 
Spd
km/h
Gust
km/h
Spd
kts
Gust
kts
15/11:30pm 22.0 26.2 21.0 94 0.7 CALM 0 - 0 - 1012.0 - 0.0
15/11:00pm 23.0 27.0 22.0 94 0.7 W 4 - 2 - 1012.0 - 0.0
15/10:30pm 23.0 26.6 22.0 94 0.7 W 6 - 3 - 1012.0 - 0.0
15/10:00pm 23.0 25.9 21.0 88 1.3 W 7 - 4 - 1012.0 - 0.0
15/09:30pm 24.0 27.0 22.0 88 1.3 W 9 - 5 - 1012.0 - 0.0
15/09:00pm 23.1 26.1 20.8 87 1.5 WSW 6 - 3 - 1012.0 1012.4 0.0
15/08:30pm 24.0 27.4 22.0 88 1.3 W 7 - 4 - 1012.0 - 0.0
15/08:00pm 23.0 26.6 22.0 94 0.7 W 6 - 3 - 1012.0 - 0.0
15/07:30pm 23.0 26.1 21.0 88 1.3 WNW 6 - 3 - 1012.0 - 0.0
15/07:00pm 24.0 26.9 21.0 83 2.0 WNW 7 - 4 - 1011.0 - 0.0
15/06:30pm 24.0 27.0 22.0 88 1.3 WNW 9 - 5 - 1011.0 - 0.0
15/06:00pm 24.7 27.6 21.0 80 2.4 NW 7 - 4 - 1011.0 1010.8 0.0
15/05:30pm 25.0 27.9 21.0 78 2.6 NNW 7 - 4 - 1010.0 - 0.0
15/05:00pm 26.0 28.1 21.0 74 3.3 NW 11 - 6 - 1010.0 - 0.0
15/04:30pm 27.0 29.3 22.0 74 3.4 NNW 13 - 7 - 1010.0 - 0.0
15/04:00pm 27.0 29.3 22.0 74 3.4 N 13 - 7 - 1010.0 - 0.0
15/03:30pm 28.0 29.4 21.0 65 4.7 N 15 - 8 - 1010.0 - 0.0
15/03:00pm 27.9 28.9 21.0 66 4.6 N 17 - 9 - 1010.0 1009.5 0.0
15/02:30pm 28.0 28.6 21.0 65 4.7 N 19 - 10 - 1010.0 - 0.0
15/02:00pm 29.0 29.4 21.0 62 5.3 N 20 - 11 - 1010.0 - 0.0
15/01:30pm 29.0 28.6 21.0 62 5.3 N 24 - 13 - 1010.0 - 0.0
15/01:00pm 30.0 30.5 22.0 62 5.4 NNW 22 - 12 - 1010.0 - 0.0
15/12:30pm 31.0 30.0 18.0 45 8.4 N 20 - 11 - 1011.0 - 0.0
15/12:00pm 31.6 29.7 15.1 36 10.2 N 19 - 10 - 1011.0 1010.9 0.0
15/11:30am 32.0 31.2 15.0 35 10.5 NE 13 - 7 - 1012.0 - 0.0
15/11:00am 33.0 30.0 6.0 18 14.5 E 11 - 6 - 1012.0 - 0.0
15/10:30am 32.0 31.2 13.0 31 11.4 NNW 9 - 5 - 1013.0 - 0.0
15/10:00am 33.0 31.9 10.0 24 13.2 E 6 - 3 - 1013.0 - 0.0
15/09:30am 31.0 30.3 12.0 31 11.2 SW 7 - 4 - 1014.0 - 0.0
15/09:00am 29.8 30.2 14.7 39 9.2 WSW 6 - 3 - 1014.0 1013.8 0.0
15/08:30am 29.0 29.9 16.0 45 8.1 WNW 6 - 3 - 1014.0 - 0.0
15/08:00am 27.0 29.1 18.0 58 5.7 S 4 - 2 - 1014.0 - 0.0
15/07:30am 26.0 27.7 18.0 61 5.1 SE 6 - 3 - 1014.0 - 0.0
15/07:00am 25.0 28.8 21.0 78 2.6 SE 2 - 1 - 1013.0 - 0.0
15/06:30am 22.0 25.4 21.0 94 0.7 E 4 - 2 - 1013.0 - 0.0
15/06:00am 19.9 23.5 19.7 99 0.1 CALM 0 - 0 - 1013.0 1012.5 0.0
15/05:30am 19.0 21.1 19.0 100 0.0 SE 6 - 3 - 1012.0 - 0.0
15/05:00am 20.0 21.9 19.0 94 0.6 S 7 - 4 - 1012.0 - 0.0
15/04:30am 20.0 22.4 20.0 100 0.0 ESE 7 - 4 - 1012.0 - 0.0
15/04:00am 21.0 23.9 21.0 100 0.0 SSW 7 - 4 - 1011.0 - 0.0
15/03:30am 19.0 22.3 19.0 100 0.0 CALM 0 - 0 - 1011.0 - 0.0
15/03:00am 19.9 22.3 19.6 98 0.2 SW 6 - 3 - 1011.0 1010.8 0.0
15/02:30am 20.0 23.3 19.0 94 0.6 CALM 0 - 0 - 1011.0 - 0.0
15/02:00am 20.0 22.1 19.0 94 0.6 S 6 - 3 - 1011.0 - 0.0
15/01:30am 20.0 21.7 18.0 88 1.2 S 6 - 3 - 1011.0 - 0.0
15/01:00am 22.0 23.9 19.0 83 1.9 SSW 7 - 4 - 1011.0 - 0.0
15/12:30am 23.0 25.9 21.0 88 1.3 SSW 7 - 4 - 1011.0 - 0.0
15/12:00am 22.7 25.5 20.8 89 1.2 SW 7 - 4 - 1011.0 1011.1 0.0
 
Date/Time
WST
Temp
°C
App
Temp
°C
Dew
Point
Rel
Hum
%
Delta-T
°C
Wind Press
QNH
hPa
Press
MSL
hPa
Rain
since 9 am
mm
Dir
 
Spd
km/h
Gust
km/h
Spd
kts
Gust
kts
14/11:30pm 22.0 24.4 20.0 88 1.3 SSW 7 - 4 - 1012.0 - 0.0
14/11:00pm 23.0 25.9 21.0 88 1.3 WSW 7 - 4 - 1012.0 - 0.0
14/10:30pm 23.0 26.4 22.0 94 0.7 WSW 7 - 4 - 1012.0 - 0.0
14/10:00pm 22.0 26.2 21.0 94 0.7 CALM 0 - 0 - 1012.0 - 0.0
14/09:30pm 22.0 25.7 20.0 88 1.3 CALM 0 - 0 - 1012.0 - 0.0
14/09:00pm 22.3 26.3 20.6 90 1.1 CALM 0 - 0 - 1012.0 1012.4 0.0
14/08:30pm 23.0 27.2 21.0 88 1.3 CALM 0 - 0 - 1013.0 - 0.0
14/08:00pm 23.0 26.7 20.0 83 1.9 CALM 0 - 0 - 1013.0 - 0.0
14/07:30pm 24.0 27.8 21.0 83 2.0 W 2 - 1 - 1012.0 - 0.0
14/07:00pm 24.0 26.6 20.0 78 2.6 NNW 6 - 3 - 1012.0 - 0.0
14/06:30pm 25.0 27.0 20.0 74 3.2 N 9 - 5 - 1012.0 - 0.0
14/06:00pm 25.4 26.2 19.1 68 4.0 N 13 19 7 10 1011.7 - 0.0
14/05:30pm 26.0 27.2 20.0 69 3.9 N 13 - 7 - 1011.0 - 0.0
14/05:00pm 26.0 26.0 19.0 65 4.5 NNE 17 - 9 - 1010.0 - 0.0
14/04:30pm 28.0 27.6 19.0 58 5.8 N 19 - 10 - 1010.0 - 0.0
14/04:00pm 29.0 29.0 19.0 54 6.5 NNE 17 - 9 - 1010.0 - 0.0
14/03:30pm 30.0 30.0 18.0 48 7.7 NNE 15 - 8 - 1009.0 - 0.0
14/03:00pm 30.3 28.2 15.2 40 9.3 NNE 20 - 11 - 1009.0 1009.1 0.0
14/02:30pm 31.0 29.0 14.0 35 10.3 NNE 17 - 9 - 1009.0 - 0.0
14/02:00pm 31.0 29.6 17.0 43 8.9 N 20 - 11 - 1009.0 - 0.0
14/01:30pm 31.0 29.4 16.0 40 9.4 N 19 - 10 - 1010.0 - 0.0
14/01:00pm 33.0 30.5 14.0 31 11.6 NNE 20 - 11 - 1010.0 - 0.0
14/12:30pm 34.0 30.8 12.0 26 13.1 N 20 - 11 - 1010.0 - 0.0
14/12:00pm 34.2 29.8 7.3 19 14.9 ENE 20 39 11 21 1011.0 1010.5 0.0
14/11:30am 34.0 30.3 8.0 20 14.5 NE 17 - 9 - 1011.0 - 0.0
14/11:00am 33.0 29.2 9.0 22 13.6 E 19 - 10 - 1012.0 - 0.0
14/10:30am 33.0 29.0 9.0 22 13.6 E 20 - 11 - 1012.0 - 0.0
14/10:00am 33.0 29.3 8.0 21 13.9 E 17 - 9 - 1012.0 - 0.0

Other Formats:

Comma delimited format used in spreadsheet applications
http://www.bom.gov.au/fwo/IDW60801/IDW60801.95101.axf

JavaScript Object Notation format (JSON) in row-major order
http://www.bom.gov.au/fwo/IDW60801/IDW60801.95101.json